sensor_id;sensor_type;location;lat;lon;timestamp;P1;durP1;ratioP1;P2;durP2;ratioP2
20423;SDS011;10371;49.042;8.002;2023-03-01T00:00:16;10.77;;;9.77;;
20423;SDS011;10371;49.042;8.002;2023-03-01T00:01:18;10.33;;;9.33;;
20423;SDS011;10371;49.042;8.002;2023-03-01T00:02:20;9.67;;;8.73;;
20423;SDS011;10371;49.042;8.002;2023-03-01T00:03:21;10.37;;;9.37;;
20423;SDS011;10371;49.042;8.002;2023-03-01T00:04:21;11.23;;;10.20;;
20423;SDS011;10371;49.042;8.002;2023-03-01T00:05:21;10.57;;;9.57;;
20423;SDS011;10371;49.042;8.002;2023-03-01T00:06:22;10.43;;;9.43;;
20423;SDS011;10371;49.042;8.002;2023-03-01T00:07:22;10.50;;;9.40;;
20423;SDS011;10371;49.042;8.002;2023-03-01T00:08:23;9.40;;;8.50;;
20423;SDS011;10371;49.042;8.002;2023-03-01T00:09:24;10.97;;;9.87;;
20423;SDS011;10371;49.042;8.002;2023-03-01T00:10:25;9.80;;;8.80;;
20423;SDS011;10371;49.042;8.002;2023-03-01T00:11:27;10.20;;;9.20;;
20423;SDS011;10371;49.042;8.002;2023-03-01T00:12:28;10.87;;;9.77;;
20423;SDS011;10371;49.042;8.002;2023-03-01T00:13:29;10.30;;;9.23;;
20423;SDS011;10371;49.042;8.002;2023-03-01T00:14:29;10.30;;;9.23;;
20423;SDS011;10371;49.042;8.002;2023-03-01T00:15:29;10.30;;;9.30;;
20423;SDS011;10371;49.042;8.002;2023-03-01T00:16:31;10.87;;;9.77;;
20423;SDS011;10371;49.042;8.002;2023-03-01T00:17:34;10.57;;;9.57;;
20423;SDS011;10371;49.042;8.002;2023-03-01T00:18:34;11.03;;;9.93;;
20423;SDS011;10371;49.042;8.002;2023-03-01T00:19:35;11.20;;;10.10;;
20423;SDS011;10371;49.042;8.002;2023-03-01T00:20:35;11.13;;;9.20;;
20423;SDS011;10371;49.042;8.002;2023-03-01T00:21:35;10.83;;;9.73;;
20423;SDS011;10371;49.042;8.002;2023-03-01T00:22:36;11.23;;;10.03;;
20423;SDS011;10371;49.042;8.002;2023-03-01T00:23:37;11.03;;;9.93;;
20423;SDS011;10371;49.042;8.002;2023-03-01T00:24:38;9.87;;;8.97;;
20423;SDS011;10371;49.042;8.002;2023-03-01T00:25:41;10.60;;;9.50;;
20423;SDS011;10371;49.042;8.002;2023-03-01T00:26:42;11.00;;;9.90;;
20423;SDS011;10371;49.042;8.002;2023-03-01T00:27:42;11.40;;;10.30;;
20423;SDS011;10371;49.042;8.002;2023-03-01T00:28:43;10.90;;;9.80;;
20423;SDS011;10371;49.042;8.002;2023-03-01T00:29:43;11.37;;;10.20;;
20423;SDS011;10371;49.042;8.002;2023-03-01T00:30:44;11.20;;;9.57;;
20423;SDS011;10371;49.042;8.002;2023-03-01T00:31:45;10.87;;;9.67;;
20423;SDS011;10371;49.042;8.002;2023-03-01T00:32:45;11.13;;;10.03;;
20423;SDS011;10371;49.042;8.002;2023-03-01T00:33:46;10.77;;;9.70;;
20423;SDS011;10371;49.042;8.002;2023-03-01T00:34:46;10.70;;;9.60;;
20423;SDS011;10371;49.042;8.002;2023-03-01T00:35:54;10.67;;;9.57;;
20423;SDS011;10371;49.042;8.002;2023-03-01T00:36:54;11.73;;;9.80;;
20423;SDS011;10371;49.042;8.002;2023-03-01T00:37:54;11.87;;;10.63;;
20423;SDS011;10371;49.042;8.002;2023-03-01T00:38:57;10.93;;;9.83;;
20423;SDS011;10371;49.042;8.002;2023-03-01T00:39:57;11.30;;;10.20;;
20423;SDS011;10371;49.042;8.002;2023-03-01T00:41:02;10.80;;;9.73;;
20423;SDS011;10371;49.042;8.002;2023-03-01T00:42:04;11.37;;;10.27;;
20423;SDS011;10371;49.042;8.002;2023-03-01T00:43:04;10.73;;;9.60;;
20423;SDS011;10371;49.042;8.002;2023-03-01T00:44:05;11.43;;;10.30;;
20423;SDS011;10371;49.042;8.002;2023-03-01T00:45:05;12.10;;;10.80;;
20423;SDS011;10371;49.042;8.002;2023-03-01T00:46:08;11.20;;;10.10;;
20423;SDS011;10371;49.042;8.002;2023-03-01T00:47:10;11.60;;;10.50;;
20423;SDS011;10371;49.042;8.002;2023-03-01T00:48:11;11.47;;;10.37;;
20423;SDS011;10371;49.042;8.002;2023-03-01T00:49:11;11.97;;;10.63;;
20423;SDS011;10371;49.042;8.002;2023-03-01T00:50:11;10.80;;;9.80;;
20423;SDS011;10371;49.042;8.002;2023-03-01T00:51:15;11.30;;;10.20;;
20423;SDS011;10371;49.042;8.002;2023-03-01T00:52:20;11.00;;;9.87;;
20423;SDS011;10371;49.042;8.002;2023-03-01T00:53:20;11.40;;;10.30;;
20423;SDS011;10371;49.042;8.002;2023-03-01T00:54:21;11.40;;;10.30;;
20423;SDS011;10371;49.042;8.002;2023-03-01T00:55:21;11.83;;;10.33;;
20423;SDS011;10371;49.042;8.002;2023-03-01T00:56:22;11.93;;;10.70;;
20423;SDS011;10371;49.042;8.002;2023-03-01T00:57:22;11.27;;;10.13;;
20423;SDS011;10371;49.042;8.002;2023-03-01T00:58:23;13.63;;;11.13;;
20423;SDS011;10371;49.042;8.002;2023-03-01T00:59:24;10.67;;;9.67;;
20423;SDS011;10371;49.042;8.002;2023-03-01T01:00:24;11.00;;;9.90;;
20423;SDS011;10371;49.042;8.002;2023-03-01T01:01:28;11.50;;;10.40;;
20423;SDS011;10371;49.042;8.002;2023-03-01T01:02:29;11.70;;;10.07;;
20423;SDS011;10371;49.042;8.002;2023-03-01T01:03:32;11.50;;;10.40;;
20423;SDS011;10371;49.042;8.002;2023-03-01T01:04:32;12.13;;;10.93;;
20423;SDS011;10371;49.042;8.002;2023-03-01T01:05:34;11.87;;;10.67;;
20423;SDS011;10371;49.042;8.002;2023-03-01T01:06:36;11.00;;;9.90;;
20423;SDS011;10371;49.042;8.002;2023-03-01T01:07:38;11.60;;;10.40;;
20423;SDS011;10371;49.042;8.002;2023-03-01T01:08:39;11.90;;;10.80;;
20423;SDS011;10371;49.042;8.002;2023-03-01T01:09:39;12.30;;;11.00;;
20423;SDS011;10371;49.042;8.002;2023-03-01T01:10:40;11.90;;;10.70;;
20423;SDS011;10371;49.042;8.002;2023-03-01T01:11:44;12.13;;;10.87;;
20423;SDS011;10371;49.042;8.002;2023-03-01T01:12:48;11.03;;;10.03;;
20423;SDS011;10371;49.042;8.002;2023-03-01T01:13:49;12.50;;;10.93;;
20423;SDS011;10371;49.042;8.002;2023-03-01T01:14:49;11.50;;;10.47;;
20423;SDS011;10371;49.042;8.002;2023-03-01T01:15:49;11.60;;;10.50;;
20423;SDS011;10371;49.042;8.002;2023-03-01T01:16:49;13.27;;;10.83;;
20423;SDS011;10371;49.042;8.002;2023-03-01T01:17:50;12.40;;;11.20;;
20423;SDS011;10371;49.042;8.002;2023-03-01T01:18:51;11.50;;;10.30;;
20423;SDS011;10371;49.042;8.002;2023-03-01T01:19:52;11.63;;;10.53;;
20423;SDS011;10371;49.042;8.002;2023-03-01T01:20:52;12.53;;;11.23;;
20423;SDS011;10371;49.042;8.002;2023-03-01T01:21:53;12.07;;;10.87;;
20423;SDS011;10371;49.042;8.002;2023-03-01T01:22:53;11.63;;;10.40;;
20423;SDS011;10371;49.042;8.002;2023-03-01T01:23:54;12.23;;;11.13;;
20423;SDS011;10371;49.042;8.002;2023-03-01T01:24:54;11.80;;;10.60;;
20423;SDS011;10371;49.042;8.002;2023-03-01T01:25:54;11.73;;;10.63;;
20423;SDS011;10371;49.042;8.002;2023-03-01T01:26:55;12.40;;;11.10;;
20423;SDS011;10371;49.042;8.002;2023-03-01T01:27:55;11.97;;;10.67;;
20423;SDS011;10371;49.042;8.002;2023-03-01T01:28:56;11.73;;;10.53;;
20423;SDS011;10371;49.042;8.002;2023-03-01T01:29:56;13.20;;;11.27;;
20423;SDS011;10371;49.042;8.002;2023-03-01T01:30:57;11.43;;;10.33;;
20423;SDS011;10371;49.042;8.002;2023-03-01T01:31:57;11.77;;;10.43;;
20423;SDS011;10371;49.042;8.002;2023-03-01T01:32:57;11.90;;;10.63;;
20423;SDS011;10371;49.042;8.002;2023-03-01T01:33:58;11.40;;;10.27;;
20423;SDS011;10371;49.042;8.002;2023-03-01T01:35:00;11.83;;;10.63;;
20423;SDS011;10371;49.042;8.002;2023-03-01T01:36:00;11.53;;;10.43;;
20423;SDS011;10371;49.042;8.002;2023-03-01T01:37:01;12.67;;;11.37;;
20423;SDS011;10371;49.042;8.002;2023-03-01T01:38:02;11.93;;;10.83;;
20423;SDS011;10371;49.042;8.002;2023-03-01T01:39:03;11.83;;;10.63;;
20423;SDS011;10371;49.042;8.002;2023-03-01T01:40:03;11.97;;;10.77;;
20423;SDS011;10371;49.042;8.002;2023-03-01T01:41:05;11.63;;;10.47;;
20423;SDS011;10371;49.042;8.002;2023-03-01T01:42:09;12.17;;;10.97;;
20423;SDS011;10371;49.042;8.002;2023-03-01T01:43:17;11.43;;;10.33;;
20423;SDS011;10371;49.042;8.002;2023-03-01T01:44:26;12.33;;;11.03;;
20423;SDS011;10371;49.042;8.002;2023-03-01T01:45:30;11.87;;;10.67;;
20423;SDS011;10371;49.042;8.002;2023-03-01T01:46:32;12.10;;;10.83;;
20423;SDS011;10371;49.042;8.002;2023-03-01T01:47:35;11.83;;;10.63;;
20423;SDS011;10371;49.042;8.002;2023-03-01T01:48:40;14.40;;;11.50;;
20423;SDS011;10371;49.042;8.002;2023-03-01T01:49:51;12.93;;;11.63;;
20423;SDS011;10371;49.042;8.002;2023-03-01T01:50:55;13.53;;;11.10;;
20423;SDS011;10371;49.042;8.002;2023-03-01T01:52:11;12.67;;;11.30;;
20423;SDS011;10371;49.042;8.002;2023-03-01T01:53:26;13.43;;;12.03;;
20423;SDS011;10371;49.042;8.002;2023-03-01T01:54:31;12.87;;;11.57;;
20423;SDS011;10371;49.042;8.002;2023-03-01T01:55:40;12.77;;;11.57;;
20423;SDS011;10371;49.042;8.002;2023-03-01T01:56:44;12.90;;;11.60;;
20423;SDS011;10371;49.042;8.002;2023-03-01T01:57:55;12.80;;;11.60;;
20423;SDS011;10371;49.042;8.002;2023-03-01T01:58:58;13.20;;;11.90;;
20423;SDS011;10371;49.042;8.002;2023-03-01T01:59:59;13.00;;;11.73;;
20423;SDS011;10371;49.042;8.002;2023-03-01T02:01:02;12.70;;;11.40;;
20423;SDS011;10371;49.042;8.002;2023-03-01T02:02:03;13.03;;;11.83;;
20423;SDS011;10371;49.042;8.002;2023-03-01T02:03:05;12.33;;;11.13;;
20423;SDS011;10371;49.042;8.002;2023-03-01T02:04:09;13.30;;;11.90;;
20423;SDS011;10371;49.042;8.002;2023-03-01T02:05:12;12.47;;;11.13;;
20423;SDS011;10371;49.042;8.002;2023-03-01T02:06:21;12.03;;;10.83;;
20423;SDS011;10371;49.042;8.002;2023-03-01T02:07:28;12.90;;;11.63;;
20423;SDS011;10371;49.042;8.002;2023-03-01T02:08:30;12.30;;;11.20;;
20423;SDS011;10371;49.042;8.002;2023-03-01T02:09:33;12.20;;;11.00;;
20423;SDS011;10371;49.042;8.002;2023-03-01T02:10:34;12.83;;;11.63;;
20423;SDS011;10371;49.042;8.002;2023-03-01T02:11:34;12.80;;;11.23;;
20423;SDS011;10371;49.042;8.002;2023-03-01T02:12:37;13.23;;;11.73;;
20423;SDS011;10371;49.042;8.002;2023-03-01T02:13:38;12.53;;;11.23;;
20423;SDS011;10371;49.042;8.002;2023-03-01T02:14:38;12.77;;;11.53;;
20423;SDS011;10371;49.042;8.002;2023-03-01T02:15:39;12.67;;;11.47;;
20423;SDS011;10371;49.042;8.002;2023-03-01T02:16:41;13.30;;;11.90;;
20423;SDS011;10371;49.042;8.002;2023-03-01T02:17:42;13.23;;;11.80;;
20423;SDS011;10371;49.042;8.002;2023-03-01T02:18:42;13.50;;;12.20;;
20423;SDS011;10371;49.042;8.002;2023-03-01T02:19:48;13.33;;;12.03;;
20423;SDS011;10371;49.042;8.002;2023-03-01T02:22:18;13.10;;;11.70;;
20423;SDS011;10371;49.042;8.002;2023-03-01T02:23:23;12.90;;;11.60;;
20423;SDS011;10371;49.042;8.002;2023-03-01T02:24:33;15.27;;;12.57;;
20423;SDS011;10371;49.042;8.002;2023-03-01T02:25:58;13.83;;;12.07;;
20423;SDS011;10371;49.042;8.002;2023-03-01T02:27:09;13.50;;;12.20;;
20423;SDS011;10371;49.042;8.002;2023-03-01T02:29:15;13.57;;;12.17;;
20423;SDS011;10371;49.042;8.002;2023-03-01T02:30:16;13.60;;;12.30;;
20423;SDS011;10371;49.042;8.002;2023-03-01T02:31:19;12.93;;;11.63;;
20423;SDS011;10371;49.042;8.002;2023-03-01T02:32:40;13.30;;;12.00;;
20423;SDS011;10371;49.042;8.002;2023-03-01T02:33:41;14.43;;;12.93;;
20423;SDS011;10371;49.042;8.002;2023-03-01T02:34:44;13.80;;;12.50;;
20423;SDS011;10371;49.042;8.002;2023-03-01T02:35:44;14.53;;;13.10;;
20423;SDS011;10371;49.042;8.002;2023-03-01T02:36:47;14.70;;;13.20;;
20423;SDS011;10371;49.042;8.002;2023-03-01T02:37:49;14.07;;;12.67;;
20423;SDS011;10371;49.042;8.002;2023-03-01T02:38:51;14.87;;;13.37;;
20423;SDS011;10371;49.042;8.002;2023-03-01T02:39:59;14.33;;;12.73;;
20423;SDS011;10371;49.042;8.002;2023-03-01T02:41:05;13.27;;;11.97;;
20423;SDS011;10371;49.042;8.002;2023-03-01T02:42:09;13.53;;;12.17;;
20423;SDS011;10371;49.042;8.002;2023-03-01T02:43:13;13.63;;;12.33;;
20423;SDS011;10371;49.042;8.002;2023-03-01T02:44:14;14.27;;;12.97;;
20423;SDS011;10371;49.042;8.002;2023-03-01T02:45:15;14.53;;;13.13;;
20423;SDS011;10371;49.042;8.002;2023-03-01T02:46:17;14.83;;;13.33;;
20423;SDS011;10371;49.042;8.002;2023-03-01T02:47:19;13.57;;;12.27;;
20423;SDS011;10371;49.042;8.002;2023-03-01T02:48:20;13.90;;;12.60;;
20423;SDS011;10371;49.042;8.002;2023-03-01T02:53:15;14.47;;;12.97;;
20423;SDS011;10371;49.042;8.002;2023-03-01T02:54:31;15.40;;;13.90;;
20423;SDS011;10371;49.042;8.002;2023-03-01T02:55:39;15.10;;;13.70;;
20423;SDS011;10371;49.042;8.002;2023-03-01T02:56:40;15.13;;;13.73;;
20423;SDS011;10371;49.042;8.002;2023-03-01T02:57:44;14.50;;;13.10;;
20423;SDS011;10371;49.042;8.002;2023-03-01T02:58:50;14.80;;;13.40;;
20423;SDS011;10371;49.042;8.002;2023-03-01T02:59:52;14.73;;;13.30;;
20423;SDS011;10371;49.042;8.002;2023-03-01T03:00:54;15.33;;;13.83;;
20423;SDS011;10371;49.042;8.002;2023-03-01T03:01:55;15.13;;;13.63;;
20423;SDS011;10371;49.042;8.002;2023-03-01T03:02:55;15.53;;;14.13;;
20423;SDS011;10371;49.042;8.002;2023-03-01T03:03:57;15.20;;;13.80;;
20423;SDS011;10371;49.042;8.002;2023-03-01T03:04:57;15.13;;;13.63;;
20423;SDS011;10371;49.042;8.002;2023-03-01T03:05:57;14.90;;;13.43;;
20423;SDS011;10371;49.042;8.002;2023-03-01T03:06:57;15.80;;;14.27;;
20423;SDS011;10371;49.042;8.002;2023-03-01T03:07:58;15.00;;;13.50;;
20423;SDS011;10371;49.042;8.002;2023-03-01T03:09:00;15.83;;;14.37;;
20423;SDS011;10371;49.042;8.002;2023-03-01T03:10:01;15.97;;;14.37;;
20423;SDS011;10371;49.042;8.002;2023-03-01T03:11:04;14.97;;;13.57;;
20423;SDS011;10371;49.042;8.002;2023-03-01T03:12:04;15.63;;;14.13;;
20423;SDS011;10371;49.042;8.002;2023-03-01T03:13:06;15.67;;;14.07;;
20423;SDS011;10371;49.042;8.002;2023-03-01T03:14:10;15.77;;;14.17;;
20423;SDS011;10371;49.042;8.002;2023-03-01T03:15:12;15.57;;;14.10;;
20423;SDS011;10371;49.042;8.002;2023-03-01T03:16:12;15.60;;;14.00;;
20423;SDS011;10371;49.042;8.002;2023-03-01T03:17:13;14.77;;;13.37;;
20423;SDS011;10371;49.042;8.002;2023-03-01T03:18:14;15.67;;;14.17;;
20423;SDS011;10371;49.042;8.002;2023-03-01T03:19:17;16.57;;;14.97;;
20423;SDS011;10371;49.042;8.002;2023-03-01T03:20:19;15.93;;;14.33;;
20423;SDS011;10371;49.042;8.002;2023-03-01T03:21:21;14.83;;;13.43;;
20423;SDS011;10371;49.042;8.002;2023-03-01T03:22:21;15.70;;;14.23;;
20423;SDS011;10371;49.042;8.002;2023-03-01T03:23:21;16.03;;;14.53;;
20423;SDS011;10371;49.042;8.002;2023-03-01T03:24:22;15.67;;;14.27;;
20423;SDS011;10371;49.042;8.002;2023-03-01T03:25:22;15.60;;;14.10;;
20423;SDS011;10371;49.042;8.002;2023-03-01T03:26:23;16.83;;;15.07;;
20423;SDS011;10371;49.042;8.002;2023-03-01T03:27:23;16.33;;;14.73;;
20423;SDS011;10371;49.042;8.002;2023-03-01T03:28:24;16.37;;;14.73;;
20423;SDS011;10371;49.042;8.002;2023-03-01T03:29:24;15.80;;;14.23;;
20423;SDS011;10371;49.042;8.002;2023-03-01T03:30:28;15.97;;;14.37;;
20423;SDS011;10371;49.042;8.002;2023-03-01T03:31:30;16.10;;;14.60;;
20423;SDS011;10371;49.042;8.002;2023-03-01T03:32:31;15.67;;;14.17;;
20423;SDS011;10371;49.042;8.002;2023-03-01T03:33:31;17.17;;;15.47;;
20423;SDS011;10371;49.042;8.002;2023-03-01T03:34:32;16.07;;;14.40;;
20423;SDS011;10371;49.042;8.002;2023-03-01T03:35:33;16.53;;;14.97;;
20423;SDS011;10371;49.042;8.002;2023-03-01T03:36:38;16.40;;;14.83;;
20423;SDS011;10371;49.042;8.002;2023-03-01T03:37:39;15.80;;;14.40;;
20423;SDS011;10371;49.042;8.002;2023-03-01T03:38:58;16.30;;;14.70;;
20423;SDS011;10371;49.042;8.002;2023-03-01T03:39:59;16.23;;;14.73;;
20423;SDS011;10371;49.042;8.002;2023-03-01T03:41:03;16.63;;;15.03;;
20423;SDS011;10371;49.042;8.002;2023-03-01T03:42:07;16.27;;;14.77;;
20423;SDS011;10371;49.042;8.002;2023-03-01T03:43:11;15.80;;;14.30;;
20423;SDS011;10371;49.042;8.002;2023-03-01T03:44:13;16.23;;;14.73;;
20423;SDS011;10371;49.042;8.002;2023-03-01T03:45:14;15.80;;;14.20;;
20423;SDS011;10371;49.042;8.002;2023-03-01T03:46:17;16.50;;;14.90;;
20423;SDS011;10371;49.042;8.002;2023-03-01T03:47:17;16.57;;;15.07;;
20423;SDS011;10371;49.042;8.002;2023-03-01T03:48:18;16.20;;;14.67;;
20423;SDS011;10371;49.042;8.002;2023-03-01T03:49:19;16.57;;;14.97;;
20423;SDS011;10371;49.042;8.002;2023-03-01T03:50:20;17.13;;;15.53;;
20423;SDS011;10371;49.042;8.002;2023-03-01T03:51:20;16.13;;;14.57;;
20423;SDS011;10371;49.042;8.002;2023-03-01T03:52:22;16.40;;;14.80;;
20423;SDS011;10371;49.042;8.002;2023-03-01T03:53:23;16.63;;;14.93;;
20423;SDS011;10371;49.042;8.002;2023-03-01T03:54:25;17.07;;;15.47;;
20423;SDS011;10371;49.042;8.002;2023-03-01T03:55:25;16.50;;;14.90;;
20423;SDS011;10371;49.042;8.002;2023-03-01T03:56:30;17.20;;;15.60;;
20423;SDS011;10371;49.042;8.002;2023-03-01T03:57:30;17.33;;;15.53;;
20423;SDS011;10371;49.042;8.002;2023-03-01T03:58:30;16.27;;;14.77;;
20423;SDS011;10371;49.042;8.002;2023-03-01T03:59:32;16.50;;;14.90;;
20423;SDS011;10371;49.042;8.002;2023-03-01T04:00:36;17.23;;;15.63;;
20423;SDS011;10371;49.042;8.002;2023-03-01T04:01:36;15.47;;;13.97;;
20423;SDS011;10371;49.042;8.002;2023-03-01T04:02:36;16.57;;;14.97;;
20423;SDS011;10371;49.042;8.002;2023-03-01T04:03:37;17.27;;;15.60;;
20423;SDS011;10371;49.042;8.002;2023-03-01T04:04:37;16.40;;;14.80;;
20423;SDS011;10371;49.042;8.002;2023-03-01T04:05:38;16.37;;;14.77;;
20423;SDS011;10371;49.042;8.002;2023-03-01T04:06:40;17.17;;;15.50;;
20423;SDS011;10371;49.042;8.002;2023-03-01T04:07:41;16.40;;;14.97;;
20423;SDS011;10371;49.042;8.002;2023-03-01T04:08:42;17.00;;;15.40;;
20423;SDS011;10371;49.042;8.002;2023-03-01T04:09:42;17.17;;;15.47;;
20423;SDS011;10371;49.042;8.002;2023-03-01T04:10:44;17.03;;;15.43;;
20423;SDS011;10371;49.042;8.002;2023-03-01T04:11:45;17.70;;;16.00;;
20423;SDS011;10371;49.042;8.002;2023-03-01T04:12:46;16.93;;;15.33;;
20423;SDS011;10371;49.042;8.002;2023-03-01T04:13:46;17.40;;;15.73;;
20423;SDS011;10371;49.042;8.002;2023-03-01T04:14:46;16.93;;;15.33;;
20423;SDS011;10371;49.042;8.002;2023-03-01T04:15:50;17.30;;;15.63;;
20423;SDS011;10371;49.042;8.002;2023-03-01T04:16:51;17.87;;;16.17;;
20423;SDS011;10371;49.042;8.002;2023-03-01T04:17:52;17.33;;;15.53;;
20423;SDS011;10371;49.042;8.002;2023-03-01T04:18:53;16.93;;;15.40;;
20423;SDS011;10371;49.042;8.002;2023-03-01T04:19:54;17.70;;;16.10;;
20423;SDS011;10371;49.042;8.002;2023-03-01T04:20:54;17.07;;;15.37;;
20423;SDS011;10371;49.042;8.002;2023-03-01T04:21:55;17.00;;;15.40;;
20423;SDS011;10371;49.042;8.002;2023-03-01T04:24:24;17.67;;;15.97;;
20423;SDS011;10371;49.042;8.002;2023-03-01T04:25:24;17.37;;;15.80;;
20423;SDS011;10371;49.042;8.002;2023-03-01T04:26:25;17.53;;;15.87;;
20423;SDS011;10371;49.042;8.002;2023-03-01T04:27:25;18.20;;;16.50;;
20423;SDS011;10371;49.042;8.002;2023-03-01T04:28:26;16.87;;;15.33;;
20423;SDS011;10371;49.042;8.002;2023-03-01T04:29:26;17.87;;;16.17;;
20423;SDS011;10371;49.042;8.002;2023-03-01T04:30:27;18.03;;;16.23;;
20423;SDS011;10371;49.042;8.002;2023-03-01T04:31:27;16.87;;;15.27;;
20423;SDS011;10371;49.042;8.002;2023-03-01T04:32:28;17.93;;;16.23;;
20423;SDS011;10371;49.042;8.002;2023-03-01T04:33:28;17.67;;;15.97;;
20423;SDS011;10371;49.042;8.002;2023-03-01T04:34:29;18.10;;;16.40;;
20423;SDS011;10371;49.042;8.002;2023-03-01T04:35:30;17.47;;;15.80;;
20423;SDS011;10371;49.042;8.002;2023-03-01T04:36:31;17.33;;;15.70;;
20423;SDS011;10371;49.042;8.002;2023-03-01T04:37:31;18.17;;;16.37;;
20423;SDS011;10371;49.042;8.002;2023-03-01T04:38:32;17.50;;;15.90;;
20423;SDS011;10371;49.042;8.002;2023-03-01T04:39:32;17.30;;;15.77;;
20423;SDS011;10371;49.042;8.002;2023-03-01T04:40:32;18.17;;;16.20;;
20423;SDS011;10371;49.042;8.002;2023-03-01T04:41:33;17.67;;;16.03;;
20423;SDS011;10371;49.042;8.002;2023-03-01T04:42:33;17.33;;;15.73;;
20423;SDS011;10371;49.042;8.002;2023-03-01T04:43:34;17.47;;;15.83;;
20423;SDS011;10371;49.042;8.002;2023-03-01T04:44:35;17.50;;;15.90;;
20423;SDS011;10371;49.042;8.002;2023-03-01T04:45:35;17.67;;;16.07;;
20423;SDS011;10371;49.042;8.002;2023-03-01T04:46:36;17.50;;;15.90;;
20423;SDS011;10371;49.042;8.002;2023-03-01T04:47:36;18.23;;;16.27;;
20423;SDS011;10371;49.042;8.002;2023-03-01T04:48:38;18.13;;;16.33;;
20423;SDS011;10371;49.042;8.002;2023-03-01T04:49:39;17.63;;;16.03;;
20423;SDS011;10371;49.042;8.002;2023-03-01T04:50:40;17.30;;;15.60;;
20423;SDS011;10371;49.042;8.002;2023-03-01T04:51:40;18.70;;;16.87;;
20423;SDS011;10371;49.042;8.002;2023-03-01T04:52:40;18.33;;;16.60;;
20423;SDS011;10371;49.042;8.002;2023-03-01T04:53:41;17.80;;;16.20;;
20423;SDS011;10371;49.042;8.002;2023-03-01T04:54:42;18.30;;;16.40;;
20423;SDS011;10371;49.042;8.002;2023-03-01T04:55:43;17.93;;;16.13;;
20423;SDS011;10371;49.042;8.002;2023-03-01T04:56:43;17.87;;;16.27;;
20423;SDS011;10371;49.042;8.002;2023-03-01T04:57:43;17.77;;;16.07;;
20423;SDS011;10371;49.042;8.002;2023-03-01T04:58:44;18.77;;;17.00;;
20423;SDS011;10371;49.042;8.002;2023-03-01T04:59:45;18.20;;;16.50;;
20423;SDS011;10371;49.042;8.002;2023-03-01T05:00:45;17.90;;;16.20;;
20423;SDS011;10371;49.042;8.002;2023-03-01T05:01:46;17.80;;;16.00;;
20423;SDS011;10371;49.042;8.002;2023-03-01T05:02:47;18.00;;;16.20;;
20423;SDS011;10371;49.042;8.002;2023-03-01T05:03:49;18.27;;;16.43;;
20423;SDS011;10371;49.042;8.002;2023-03-01T05:04:51;18.73;;;16.93;;
20423;SDS011;10371;49.042;8.002;2023-03-01T05:05:52;17.37;;;15.67;;
20423;SDS011;10371;49.042;8.002;2023-03-01T05:06:52;18.63;;;16.73;;
20423;SDS011;10371;49.042;8.002;2023-03-01T05:07:57;17.57;;;15.97;;
20423;SDS011;10371;49.042;8.002;2023-03-01T05:08:59;18.70;;;17.00;;
20423;SDS011;10371;49.042;8.002;2023-03-01T05:09:59;18.97;;;17.10;;
20423;SDS011;10371;49.042;8.002;2023-03-01T05:10:59;18.57;;;16.77;;
20423;SDS011;10371;49.042;8.002;2023-03-01T05:12:00;17.67;;;16.00;;
20423;SDS011;10371;49.042;8.002;2023-03-01T05:13:00;18.70;;;16.90;;
20423;SDS011;10371;49.042;8.002;2023-03-01T05:14:02;17.67;;;15.97;;
20423;SDS011;10371;49.042;8.002;2023-03-01T05:15:04;18.23;;;16.43;;
20423;SDS011;10371;49.042;8.002;2023-03-01T05:16:07;18.50;;;16.73;;
20423;SDS011;10371;49.042;8.002;2023-03-01T05:17:10;18.33;;;16.53;;
20423;SDS011;10371;49.042;8.002;2023-03-01T05:18:11;17.87;;;16.17;;
20423;SDS011;10371;49.042;8.002;2023-03-01T05:19:11;17.60;;;16.00;;
20423;SDS011;10371;49.042;8.002;2023-03-01T05:20:15;18.60;;;16.70;;
20423;SDS011;10371;49.042;8.002;2023-03-01T05:21:16;18.07;;;16.20;;
20423;SDS011;10371;49.042;8.002;2023-03-01T05:22:16;17.47;;;15.80;;
20423;SDS011;10371;49.042;8.002;2023-03-01T05:23:17;17.87;;;16.07;;
20423;SDS011;10371;49.042;8.002;2023-03-01T05:24:18;17.90;;;16.23;;
20423;SDS011;10371;49.042;8.002;2023-03-01T05:25:18;18.63;;;16.83;;
20423;SDS011;10371;49.042;8.002;2023-03-01T05:26:19;19.43;;;17.57;;
20423;SDS011;10371;49.042;8.002;2023-03-01T05:27:21;17.73;;;16.13;;
20423;SDS011;10371;49.042;8.002;2023-03-01T05:28:22;17.53;;;15.73;;
20423;SDS011;10371;49.042;8.002;2023-03-01T05:29:22;18.20;;;16.50;;
20423;SDS011;10371;49.042;8.002;2023-03-01T05:30:26;17.97;;;16.27;;
20423;SDS011;10371;49.042;8.002;2023-03-01T05:31:27;18.60;;;16.80;;
20423;SDS011;10371;49.042;8.002;2023-03-01T05:32:28;18.47;;;16.67;;
20423;SDS011;10371;49.042;8.002;2023-03-01T05:33:31;18.23;;;16.43;;
20423;SDS011;10371;49.042;8.002;2023-03-01T05:34:33;18.00;;;16.20;;
20423;SDS011;10371;49.042;8.002;2023-03-01T05:35:35;19.07;;;17.07;;
20423;SDS011;10371;49.042;8.002;2023-03-01T05:36:35;18.27;;;16.57;;
20423;SDS011;10371;49.042;8.002;2023-03-01T05:37:36;18.33;;;16.57;;
20423;SDS011;10371;49.042;8.002;2023-03-01T05:38:36;17.53;;;15.83;;
20423;SDS011;10371;49.042;8.002;2023-03-01T05:39:36;18.83;;;17.13;;
20423;SDS011;10371;49.042;8.002;2023-03-01T05:40:37;19.17;;;17.33;;
20423;SDS011;10371;49.042;8.002;2023-03-01T05:41:37;18.57;;;16.73;;
20423;SDS011;10371;49.042;8.002;2023-03-01T05:42:37;18.50;;;16.70;;
20423;SDS011;10371;49.042;8.002;2023-03-01T05:43:37;18.30;;;16.60;;
20423;SDS011;10371;49.042;8.002;2023-03-01T05:44:38;18.87;;;17.00;;
20423;SDS011;10371;49.042;8.002;2023-03-01T05:45:39;18.40;;;16.50;;
20423;SDS011;10371;49.042;8.002;2023-03-01T05:46:40;17.93;;;16.30;;
20423;SDS011;10371;49.042;8.002;2023-03-01T05:47:41;18.63;;;16.83;;
20423;SDS011;10371;49.042;8.002;2023-03-01T05:48:43;18.63;;;16.73;;
20423;SDS011;10371;49.042;8.002;2023-03-01T05:49:43;18.97;;;17.07;;
20423;SDS011;10371;49.042;8.002;2023-03-01T05:50:44;19.20;;;17.23;;
20423;SDS011;10371;49.042;8.002;2023-03-01T05:51:49;18.83;;;16.93;;
20423;SDS011;10371;49.042;8.002;2023-03-01T05:52:52;18.87;;;17.00;;
20423;SDS011;10371;49.042;8.002;2023-03-01T05:53:57;18.90;;;17.07;;
20423;SDS011;10371;49.042;8.002;2023-03-01T05:54:58;18.83;;;17.07;;
20423;SDS011;10371;49.042;8.002;2023-03-01T05:55:58;18.23;;;16.53;;
20423;SDS011;10371;49.042;8.002;2023-03-01T05:56:58;19.43;;;17.47;;
20423;SDS011;10371;49.042;8.002;2023-03-01T05:57:59;18.70;;;16.90;;
20423;SDS011;10371;49.042;8.002;2023-03-01T05:59:04;19.03;;;17.03;;
20423;SDS011;10371;49.042;8.002;2023-03-01T06:00:05;19.90;;;17.80;;
20423;SDS011;10371;49.042;8.002;2023-03-01T06:01:10;18.93;;;17.13;;
20423;SDS011;10371;49.042;8.002;2023-03-01T06:02:12;19.07;;;17.17;;
20423;SDS011;10371;49.042;8.002;2023-03-01T06:03:12;18.80;;;17.03;;
20423;SDS011;10371;49.042;8.002;2023-03-01T06:04:14;19.93;;;17.93;;
20423;SDS011;10371;49.042;8.002;2023-03-01T06:05:14;20.43;;;18.43;;
20423;SDS011;10371;49.042;8.002;2023-03-01T06:06:15;19.83;;;17.83;;
20423;SDS011;10371;49.042;8.002;2023-03-01T06:07:15;20.07;;;18.07;;
20423;SDS011;10371;49.042;8.002;2023-03-01T06:08:15;19.50;;;17.57;;
20423;SDS011;10371;49.042;8.002;2023-03-01T06:09:16;20.03;;;18.13;;
20423;SDS011;10371;49.042;8.002;2023-03-01T06:10:17;19.03;;;17.07;;